sensor_id;sensor_type;location;lat;lon;timestamp;pressure;altitude;pressure_sealevel;temperature;humidity
20228;BME280;12195;55.790;37.572;2023-06-26T00:01:15;99619.83;;;19.98;52.24
20228;BME280;12195;55.790;37.572;2023-06-26T00:04:01;99619.26;;;19.94;52.47
20228;BME280;12195;55.790;37.572;2023-06-26T00:06:44;99607.20;;;19.90;52.17
20228;BME280;12195;55.790;37.572;2023-06-26T00:09:17;99598.16;;;19.64;52.77
20228;BME280;12195;55.790;37.572;2023-06-26T00:11:59;99604.28;;;19.84;52.79
20228;BME280;12195;55.790;37.572;2023-06-26T00:14:31;99609.09;;;19.61;53.24
20228;BME280;12195;55.790;37.572;2023-06-26T00:17:15;99614.26;;;19.82;53.37
20228;BME280;12195;55.790;37.572;2023-06-26T00:19:59;99615.94;;;19.83;53.36
20228;BME280;12195;55.790;37.572;2023-06-26T00:22:35;99611.08;;;19.59;52.89
20228;BME280;12195;55.790;37.572;2023-06-26T00:25:19;99617.61;;;19.84;52.44
20228;BME280;12195;55.790;37.572;2023-06-26T00:28:01;99613.13;;;19.84;53.24
20228;BME280;12195;55.790;37.572;2023-06-26T00:30:44;99615.11;;;19.82;53.17
20228;BME280;12195;55.790;37.572;2023-06-26T00:33:16;99611.63;;;19.63;53.31
20228;BME280;12195;55.790;37.572;2023-06-26T00:36:05;99615.80;;;19.84;53.05
20228;BME280;12195;55.790;37.572;2023-06-26T00:38:38;99609.09;;;19.61;53.03
20228;BME280;12195;55.790;37.572;2023-06-26T00:41:20;99611.45;;;19.83;53.14
20228;BME280;12195;55.790;37.572;2023-06-26T00:43:53;99606.60;;;19.60;53.32
20228;BME280;12195;55.790;37.572;2023-06-26T00:46:36;99615.25;;;19.81;53.72
20228;BME280;12195;55.790;37.572;2023-06-26T00:49:08;99608.69;;;19.56;53.73
20228;BME280;12195;55.790;37.572;2023-06-26T00:51:52;99615.67;;;19.76;53.70
20228;BME280;12195;55.790;37.572;2023-06-26T00:54:26;99605.48;;;19.53;54.10
20228;BME280;12195;55.790;37.572;2023-06-26T00:57:08;99616.94;;;19.72;54.22
20228;BME280;12195;55.790;37.572;2023-06-26T00:59:40;99605.90;;;19.48;54.12
20228;BME280;12195;55.790;37.572;2023-06-26T01:02:26;99607.55;;;19.68;54.43
20228;BME280;12195;55.790;37.572;2023-06-26T01:05:01;99604.36;;;19.46;54.55
20228;BME280;12195;55.790;37.572;2023-06-26T01:07:35;99602.81;;;19.62;53.66
20228;BME280;12195;55.790;37.572;2023-06-26T01:10:08;99608.82;;;19.64;52.81
20228;BME280;12195;55.790;37.572;2023-06-26T01:12:51;99608.41;;;19.69;54.76
20228;BME280;12195;55.790;37.572;2023-06-26T01:15:23;99601.70;;;19.46;54.93
20228;BME280;12195;55.790;37.572;2023-06-26T01:18:12;99599.70;;;19.67;55.25
20228;BME280;12195;55.790;37.572;2023-06-26T01:20:58;99601.54;;;19.66;54.94
20228;BME280;12195;55.790;37.572;2023-06-26T01:23:35;99601.16;;;19.42;55.25
20228;BME280;12195;55.790;37.572;2023-06-26T01:26:22;99600.27;;;19.70;53.95
20228;BME280;12195;55.790;37.572;2023-06-26T01:28:56;99597.64;;;19.42;55.28
20228;BME280;12195;55.790;37.572;2023-06-26T01:31:40;99609.95;;;19.62;55.61
20228;BME280;12195;55.790;37.572;2023-06-26T01:34:16;99598.08;;;19.37;55.55
20228;BME280;12195;55.790;37.572;2023-06-26T01:37:03;99605.61;;;19.61;55.27
20228;BME280;12195;55.790;37.572;2023-06-26T01:39:36;99603.23;;;19.39;55.24
20228;BME280;12195;55.790;37.572;2023-06-26T01:42:19;99610.09;;;19.60;54.90
20228;BME280;12195;55.790;37.572;2023-06-26T01:44:52;99602.42;;;19.38;54.81
20228;BME280;12195;55.790;37.572;2023-06-26T01:47:38;99606.44;;;19.61;54.87
20228;BME280;12195;55.790;37.572;2023-06-26T01:53:12;99599.30;;;19.62;55.06
20228;BME280;12195;55.790;37.572;2023-06-26T01:55:54;99606.75;;;19.39;55.08
20228;BME280;12195;55.790;37.572;2023-06-26T01:58:28;99598.77;;;19.39;55.16
20228;BME280;12195;55.790;37.572;2023-06-26T02:01:12;99608.14;;;19.62;54.85
20228;BME280;12195;55.790;37.572;2023-06-26T02:03:45;99603.81;;;19.42;54.84
20228;BME280;12195;55.790;37.572;2023-06-26T02:06:29;99606.02;;;19.66;55.11
20228;BME280;12195;55.790;37.572;2023-06-26T02:09:02;99601.70;;;19.46;54.94
20228;BME280;12195;55.790;37.572;2023-06-26T02:11:47;99606.56;;;19.69;55.20
20228;BME280;12195;55.790;37.572;2023-06-26T02:14:19;99607.44;;;19.51;54.52
20228;BME280;12195;55.790;37.572;2023-06-26T02:17:04;99606.82;;;19.76;54.78
20228;BME280;12195;55.790;37.572;2023-06-26T02:19:38;99604.90;;;19.59;54.39
20228;BME280;12195;55.790;37.572;2023-06-26T02:22:22;99608.79;;;19.83;54.55
20228;BME280;12195;55.790;37.572;2023-06-26T02:24:55;99604.20;;;19.66;54.48
20228;BME280;12195;55.790;37.572;2023-06-26T02:27:38;99606.10;;;19.93;54.36
20228;BME280;12195;55.790;37.572;2023-06-26T02:30:12;99611.33;;;19.75;54.15
20228;BME280;12195;55.790;37.572;2023-06-26T02:32:55;99609.70;;;20.01;54.22
20228;BME280;12195;55.790;37.572;2023-06-26T02:35:28;99606.13;;;19.83;53.98
20228;BME280;12195;55.790;37.572;2023-06-26T02:38:12;99613.23;;;20.11;54.41
20228;BME280;12195;55.790;37.572;2023-06-26T02:40:44;99607.50;;;19.97;54.32
20228;BME280;12195;55.790;37.572;2023-06-26T02:43:28;99616.25;;;20.26;54.17
20228;BME280;12195;55.790;37.572;2023-06-26T02:46:01;99611.66;;;20.09;53.73
20228;BME280;12195;55.790;37.572;2023-06-26T02:48:44;99616.89;;;20.37;53.69
20228;BME280;12195;55.790;37.572;2023-06-26T02:51:27;99617.28;;;20.42;53.70
20228;BME280;12195;55.790;37.572;2023-06-26T02:54:11;99614.86;;;20.49;53.50
20228;BME280;12195;55.790;37.572;2023-06-26T02:56:45;99615.51;;;20.33;53.36
20228;BME280;12195;55.790;37.572;2023-06-26T02:59:30;99618.87;;;20.63;52.48
20228;BME280;12195;55.790;37.572;2023-06-26T03:02:02;99616.14;;;20.45;52.39
20228;BME280;12195;55.790;37.572;2023-06-26T03:04:50;99615.00;;;20.75;52.06
20228;BME280;12195;55.790;37.572;2023-06-26T03:07:24;99610.48;;;20.58;51.74
20228;BME280;12195;55.790;37.572;2023-06-26T03:10:08;99620.00;;;20.87;51.61
20228;BME280;12195;55.790;37.572;2023-06-26T03:12:41;99611.81;;;20.71;51.46
20228;BME280;12195;55.790;37.572;2023-06-26T03:15:25;99615.16;;;21.00;51.36
20228;BME280;12195;55.790;37.572;2023-06-26T03:18:10;99612.86;;;21.05;51.55
20228;BME280;12195;55.790;37.572;2023-06-26T03:20:55;99603.41;;;21.11;50.90
20228;BME280;12195;55.790;37.572;2023-06-26T03:23:28;99602.84;;;20.90;50.81
20228;BME280;12195;55.790;37.572;2023-06-26T03:26:11;99611.65;;;21.17;51.03
20228;BME280;12195;55.790;37.572;2023-06-26T03:28:46;99605.06;;;20.94;50.88
20228;BME280;12195;55.790;37.572;2023-06-26T03:31:29;99605.83;;;21.22;50.33
20228;BME280;12195;55.790;37.572;2023-06-26T03:34:13;99607.20;;;21.26;50.31
20228;BME280;12195;55.790;37.572;2023-06-26T03:36:56;99618.59;;;21.28;50.31
20228;BME280;12195;55.790;37.572;2023-06-26T03:39:29;99604.55;;;21.08;49.84
20228;BME280;12195;55.790;37.572;2023-06-26T03:42:14;99604.67;;;21.42;49.57
20228;BME280;12195;55.790;37.572;2023-06-26T03:44:47;99595.55;;;21.27;49.40
20228;BME280;12195;55.790;37.572;2023-06-26T03:47:21;99600.48;;;21.39;49.05
20228;BME280;12195;55.790;37.572;2023-06-26T03:50:05;99598.30;;;21.78;48.66
20228;BME280;12195;55.790;37.572;2023-06-26T03:52:38;99599.09;;;21.70;48.33
20228;BME280;12195;55.790;37.572;2023-06-26T03:55:20;99601.18;;;22.10;48.07
20228;BME280;12195;55.790;37.572;2023-06-26T03:57:55;99593.47;;;22.07;47.29
20228;BME280;12195;55.790;37.572;2023-06-26T04:00:28;99598.59;;;22.26;46.90
20228;BME280;12195;55.790;37.572;2023-06-26T04:03:10;99605.15;;;22.73;46.77
20228;BME280;12195;55.790;37.572;2023-06-26T04:05:44;99600.14;;;22.70;45.61
20228;BME280;12195;55.790;37.572;2023-06-26T04:08:27;99602.56;;;23.13;45.41
20228;BME280;12195;55.790;37.572;2023-06-26T04:11:13;99591.21;;;23.35;44.88
20228;BME280;12195;55.790;37.572;2023-06-26T04:13:45;99585.69;;;23.28;43.64
20228;BME280;12195;55.790;37.572;2023-06-26T04:16:28;99599.77;;;23.70;43.51
20228;BME280;12195;55.790;37.572;2023-06-26T04:19:02;99589.05;;;23.54;42.63
20228;BME280;12195;55.790;37.572;2023-06-26T04:21:48;99597.25;;;23.93;42.79
20228;BME280;12195;55.790;37.572;2023-06-26T04:24:31;99592.04;;;23.99;42.43
20228;BME280;12195;55.790;37.572;2023-06-26T04:27:04;99583.16;;;23.75;41.72
20228;BME280;12195;55.790;37.572;2023-06-26T04:32:31;99587.84;;;24.05;41.82
20228;BME280;12195;55.790;37.572;2023-06-26T04:35:06;99579.45;;;23.76;40.64
20228;BME280;12195;55.790;37.572;2023-06-26T04:37:48;99587.84;;;24.05;40.36
20228;BME280;12195;55.790;37.572;2023-06-26T04:40:21;99581.80;;;23.79;39.97
20228;BME280;12195;55.790;37.572;2023-06-26T04:43:04;99589.17;;;24.09;40.18
20228;BME280;12195;55.790;37.572;2023-06-26T04:45:36;99577.13;;;23.81;39.92
20228;BME280;12195;55.790;37.572;2023-06-26T04:48:09;99585.82;;;23.83;39.33
20228;BME280;12195;55.790;37.572;2023-06-26T04:50:55;99584.45;;;24.11;39.90
20228;BME280;12195;55.790;37.572;2023-06-26T04:53:29;99576.76;;;23.84;39.33
20228;BME280;12195;55.790;37.572;2023-06-26T04:56:11;99585.47;;;24.10;39.50
20228;BME280;12195;55.790;37.572;2023-06-26T04:58:54;99581.77;;;24.11;39.76
20228;BME280;12195;55.790;37.572;2023-06-26T05:01:27;99575.41;;;23.88;39.55
20228;BME280;12195;55.790;37.572;2023-06-26T05:04:15;99573.38;;;24.14;39.74
20228;BME280;12195;55.790;37.572;2023-06-26T05:06:59;99575.05;;;24.15;39.89
20228;BME280;12195;55.790;37.572;2023-06-26T05:09:42;99571.34;;;24.16;39.74
20228;BME280;12195;55.790;37.572;2023-06-26T05:12:26;99574.54;;;24.19;39.55
20228;BME280;12195;55.790;37.572;2023-06-26T05:14:59;99572.89;;;24.02;39.17
20228;BME280;12195;55.790;37.572;2023-06-26T05:17:43;99582.02;;;24.32;39.41
20228;BME280;12195;55.790;37.572;2023-06-26T05:20:28;99585.87;;;24.37;39.19
20228;BME280;12195;55.790;37.572;2023-06-26T05:23:13;99587.02;;;24.43;39.28
20228;BME280;12195;55.790;37.572;2023-06-26T05:25:48;99574.00;;;24.24;38.95
20228;BME280;12195;55.790;37.572;2023-06-26T05:28:33;99574.75;;;24.48;38.91
20228;BME280;12195;55.790;37.572;2023-06-26T05:31:09;99579.70;;;24.21;38.91
20228;BME280;12195;55.790;37.572;2023-06-26T05:33:55;99579.45;;;24.46;39.09
20228;BME280;12195;55.790;37.572;2023-06-26T05:36:29;99567.28;;;24.28;39.11
20228;BME280;12195;55.790;37.572;2023-06-26T05:39:13;99579.41;;;24.54;38.90
20228;BME280;12195;55.790;37.572;2023-06-26T05:41:49;99570.78;;;24.36;38.78
20228;BME280;12195;55.790;37.572;2023-06-26T05:44:33;99575.52;;;24.65;38.17
20228;BME280;12195;55.790;37.572;2023-06-26T05:47:06;99571.08;;;24.41;38.20
20228;BME280;12195;55.790;37.572;2023-06-26T05:49:39;99570.74;;;24.44;37.26
20228;BME280;12195;55.790;37.572;2023-06-26T05:52:25;99571.98;;;24.72;36.92
20228;BME280;12195;55.790;37.572;2023-06-26T05:54:58;99565.16;;;24.54;37.44
20228;BME280;12195;55.790;37.572;2023-06-26T05:57:42;99572.75;;;24.81;37.73
20228;BME280;12195;55.790;37.572;2023-06-26T06:00:25;99565.37;;;24.83;37.86
20228;BME280;12195;55.790;37.572;2023-06-26T06:02:58;99567.47;;;24.65;37.81
20228;BME280;12195;55.790;37.572;2023-06-26T06:05:43;99564.98;;;24.86;37.21
20228;BME280;12195;55.790;37.572;2023-06-26T06:08:26;99572.06;;;24.87;37.00
20228;BME280;12195;55.790;37.572;2023-06-26T06:11:09;99572.06;;;24.87;36.56
20228;BME280;12195;55.790;37.572;2023-06-26T06:13:42;99563.12;;;24.64;36.61
20228;BME280;12195;55.790;37.572;2023-06-26T06:16:44;99567.63;;;24.94;36.70
20228;BME280;12195;55.790;37.572;2023-06-26T06:19:29;99572.30;;;25.00;36.19
20228;BME280;12195;55.790;37.572;2023-06-26T06:22:12;99568.59;;;25.01;35.44
20228;BME280;12195;55.790;37.572;2023-06-26T06:24:57;99566.42;;;24.96;35.68
20228;BME280;12195;55.790;37.572;2023-06-26T06:27:31;99565.41;;;24.75;35.10
20228;BME280;12195;55.790;37.572;2023-06-26T06:30:14;99564.41;;;24.98;35.30
20228;BME280;12195;55.790;37.572;2023-06-26T06:32:59;99558.48;;;25.03;35.32
20228;BME280;12195;55.790;37.572;2023-06-26T06:35:41;99553.44;;;25.08;35.44
20228;BME280;12195;55.790;37.572;2023-06-26T06:38:14;99557.25;;;24.91;34.33
20228;BME280;12195;55.790;37.572;2023-06-26T06:40:47;99560.06;;;24.98;33.50
20228;BME280;12195;55.790;37.572;2023-06-26T06:43:21;99551.62;;;25.00;33.81
20228;BME280;12195;55.790;37.572;2023-06-26T06:46:05;99566.22;;;25.29;33.61
20228;BME280;12195;55.790;37.572;2023-06-26T06:48:39;99555.56;;;25.13;33.37
20228;BME280;12195;55.790;37.572;2023-06-26T06:51:22;99555.05;;;25.40;33.71
20228;BME280;12195;55.790;37.572;2023-06-26T06:53:54;99551.79;;;25.22;33.00
20228;BME280;12195;55.790;37.572;2023-06-26T06:56:39;99549.24;;;25.51;32.79
20228;BME280;12195;55.790;37.572;2023-06-26T06:59:21;99543.41;;;25.62;32.81
20228;BME280;12195;55.790;37.572;2023-06-26T07:01:53;99538.66;;;25.49;31.75
20228;BME280;12195;55.790;37.572;2023-06-26T07:04:36;99551.48;;;25.76;32.22
20228;BME280;12195;55.790;37.572;2023-06-26T07:07:09;99533.84;;;25.59;31.43
20228;BME280;12195;55.790;37.572;2023-06-26T07:10:13;99538.89;;;25.91;32.36
20228;BME280;12195;55.790;37.572;2023-06-26T07:12:46;99535.43;;;25.68;31.65
20228;BME280;12195;55.790;37.572;2023-06-26T07:15:31;99545.61;;;25.95;32.07
20228;BME280;12195;55.790;37.572;2023-06-26T07:18:04;99535.92;;;25.72;31.11
20228;BME280;12195;55.790;37.572;2023-06-26T07:20:49;99535.30;;;25.99;31.30
20228;BME280;12195;55.790;37.572;2023-06-26T07:23:34;99538.48;;;26.02;31.43
20228;BME280;12195;55.790;37.572;2023-06-26T07:26:16;99540.98;;;26.04;31.46
20228;BME280;12195;55.790;37.572;2023-06-26T07:29:02;99543.55;;;26.12;31.46
20228;BME280;12195;55.790;37.572;2023-06-26T07:31:37;99528.67;;;25.87;31.11
20228;BME280;12195;55.790;37.572;2023-06-26T07:34:20;99538.91;;;26.35;31.13
20228;BME280;12195;55.790;37.572;2023-06-26T07:36:53;99529.63;;;26.23;30.71
20228;BME280;12195;55.790;37.572;2023-06-26T07:39:26;99532.67;;;26.34;30.74
20228;BME280;12195;55.790;37.572;2023-06-26T07:42:10;99536.66;;;26.67;30.92
20228;BME280;12195;55.790;37.572;2023-06-26T07:44:43;99530.05;;;26.55;30.63
20228;BME280;12195;55.790;37.572;2023-06-26T07:47:27;99529.71;;;26.79;31.18
20228;BME280;12195;55.790;37.572;2023-06-26T07:50:01;99534.59;;;26.55;30.79
20228;BME280;12195;55.790;37.572;2023-06-26T07:52:45;99531.22;;;26.82;30.46
20228;BME280;12195;55.790;37.572;2023-06-26T07:55:18;99521.97;;;26.55;30.08
20228;BME280;12195;55.790;37.572;2023-06-26T07:58:03;99532.41;;;26.79;30.18
20228;BME280;12195;55.790;37.572;2023-06-26T08:00:47;99529.34;;;26.82;29.48
20228;BME280;12195;55.790;37.572;2023-06-26T08:03:31;99524.61;;;26.84;29.63
20228;BME280;12195;55.790;37.572;2023-06-26T08:06:05;99516.50;;;26.63;29.59
20228;BME280;12195;55.790;37.572;2023-06-26T08:08:49;99516.89;;;27.02;30.21
20228;BME280;12195;55.790;37.572;2023-06-26T08:11:22;99521.25;;;26.82;29.04
20228;BME280;12195;55.790;37.572;2023-06-26T08:14:06;99522.78;;;27.12;29.36
20228;BME280;12195;55.790;37.572;2023-06-26T08:16:40;99514.33;;;26.94;28.53
20228;BME280;12195;55.790;37.572;2023-06-26T08:19:24;99518.80;;;27.23;28.82
20228;BME280;12195;55.790;37.572;2023-06-26T08:22:13;99523.07;;;27.38;28.72
20228;BME280;12195;55.790;37.572;2023-06-26T08:24:46;99504.33;;;27.30;28.27
20228;BME280;12195;55.790;37.572;2023-06-26T08:27:30;99521.41;;;27.65;28.57
20228;BME280;12195;55.790;37.572;2023-06-26T08:30:04;99511.05;;;27.41;27.96
20228;BME280;12195;55.790;37.572;2023-06-26T08:32:36;99519.34;;;27.39;27.77
20228;BME280;12195;55.790;37.572;2023-06-26T08:35:21;99520.09;;;27.54;28.09
20228;BME280;12195;55.790;37.572;2023-06-26T08:38:03;99514.78;;;27.40;28.25
20228;BME280;12195;55.790;37.572;2023-06-26T08:40:47;99519.34;;;27.39;28.40
20228;BME280;12195;55.790;37.572;2023-06-26T08:43:31;99510.16;;;27.61;28.08
20228;BME280;12195;55.790;37.572;2023-06-26T08:46:04;99499.48;;;27.74;27.12
20228;BME280;12195;55.790;37.572;2023-06-26T08:48:56;99508.73;;;28.33;27.55
20228;BME280;12195;55.790;37.572;2023-06-26T08:51:44;99507.23;;;28.71;27.39
20228;BME280;12195;55.790;37.572;2023-06-26T08:54:31;99508.95;;;28.92;26.93
20228;BME280;12195;55.790;37.572;2023-06-26T08:57:18;99505.98;;;28.74;26.95
20228;BME280;12195;55.790;37.572;2023-06-26T08:59:51;99506.42;;;28.71;26.15
20228;BME280;12195;55.790;37.572;2023-06-26T09:02:38;99508.60;;;29.14;26.47
20228;BME280;12195;55.790;37.572;2023-06-26T09:05:13;99491.93;;;29.11;25.78
20228;BME280;12195;55.790;37.572;2023-06-26T09:07:55;99496.97;;;29.60;25.44
20228;BME280;12195;55.790;37.572;2023-06-26T09:10:29;99477.37;;;29.45;24.79
20228;BME280;12195;55.790;37.572;2023-06-26T09:13:20;99487.56;;;29.75;25.36
20228;BME280;12195;55.790;37.572;2023-06-26T09:15:55;99484.86;;;29.29;25.24
20228;BME280;12195;55.790;37.572;2023-06-26T09:18:41;99493.59;;;29.51;25.10
20228;BME280;12195;55.790;37.572;2023-06-26T09:21:26;99484.05;;;29.36;25.44
20228;BME280;12195;55.790;37.572;2023-06-26T09:23:59;99482.80;;;29.05;25.07
20228;BME280;12195;55.790;37.572;2023-06-26T09:26:42;99484.88;;;29.43;25.49
20228;BME280;12195;55.790;37.572;2023-06-26T09:29:15;99488.20;;;29.25;24.89
20228;BME280;12195;55.790;37.572;2023-06-26T09:32:00;99483.18;;;29.81;25.01
20228;BME280;12195;55.790;37.572;2023-06-26T09:34:33;99481.09;;;29.76;23.96
20228;BME280;12195;55.790;37.572;2023-06-26T09:37:16;99480.17;;;30.08;23.73
20228;BME280;12195;55.790;37.572;2023-06-26T09:39:58;99481.44;;;30.06;23.17
20228;BME280;12195;55.790;37.572;2023-06-26T09:42:42;99488.95;;;30.17;23.58
20228;BME280;12195;55.790;37.572;2023-06-26T09:45:21;99472.72;;;29.91;23.08
20228;BME280;12195;55.790;37.572;2023-06-26T09:48:06;99466.78;;;30.33;23.56
20228;BME280;12195;55.790;37.572;2023-06-26T09:50:42;99466.21;;;30.18;23.26
20228;BME280;12195;55.790;37.572;2023-06-26T09:53:26;99468.33;;;30.53;23.88
20228;BME280;12195;55.790;37.572;2023-06-26T09:55:59;99463.41;;;29.67;25.61
20228;BME280;12195;55.790;37.572;2023-06-26T09:58:43;99467.45;;;30.22;24.99
20228;BME280;12195;55.790;37.572;2023-06-26T10:01:17;99453.92;;;30.09;24.38
20228;BME280;12195;55.790;37.572;2023-06-26T10:04:02;99467.06;;;30.56;24.25
20228;BME280;12195;55.790;37.572;2023-06-26T10:06:47;99465.16;;;30.19;24.55
20228;BME280;12195;55.790;37.572;2023-06-26T10:09:22;99458.09;;;30.18;24.01
20228;BME280;12195;55.790;37.572;2023-06-26T10:12:20;99469.09;;;30.67;23.52
20228;BME280;12195;55.790;37.572;2023-06-26T10:15:07;99467.59;;;30.77;24.11
20228;BME280;12195;55.790;37.572;2023-06-26T10:17:54;99465.98;;;30.70;24.18
20228;BME280;12195;55.790;37.572;2023-06-26T10:20:28;99451.84;;;30.04;24.31
20228;BME280;12195;55.790;37.572;2023-06-26T10:23:13;99461.64;;;30.18;25.13
20228;BME280;12195;55.790;37.572;2023-06-26T10:25:59;99470.42;;;30.01;25.31
20228;BME280;12195;55.790;37.572;2023-06-26T10:28:48;99471.55;;;29.48;25.82
20228;BME280;12195;55.790;37.572;2023-06-26T10:31:26;99470.31;;;29.24;25.95
20228;BME280;12195;55.790;37.572;2023-06-26T10:34:00;99470.09;;;29.19;25.78
20228;BME280;12195;55.790;37.572;2023-06-26T10:36:44;99471.56;;;29.35;25.71
20228;BME280;12195;55.790;37.572;2023-06-26T10:39:18;99459.02;;;28.81;25.45
20228;BME280;12195;55.790;37.572;2023-06-26T10:42:10;99472.19;;;29.10;25.32
20228;BME280;12195;55.790;37.572;2023-06-26T10:44:44;99457.12;;;28.75;25.14
20228;BME280;12195;55.790;37.572;2023-06-26T10:47:33;99460.52;;;29.16;25.09
20228;BME280;12195;55.790;37.572;2023-06-26T10:50:23;99453.86;;;29.12;25.33
20228;BME280;12195;55.790;37.572;2023-06-26T10:56:06;99451.03;;;29.97;24.70
20228;BME280;12195;55.790;37.572;2023-06-26T10:58:41;99440.27;;;29.78;24.35
20228;BME280;12195;55.790;37.572;2023-06-26T11:01:26;99437.97;;;29.88;24.31
20228;BME280;12195;55.790;37.572;2023-06-26T11:04:05;99433.80;;;29.85;24.33
20228;BME280;12195;55.790;37.572;2023-06-26T11:06:52;99448.90;;;30.19;24.72
20228;BME280;12195;55.790;37.572;2023-06-26T11:09:27;99428.58;;;29.90;24.55
20228;BME280;12195;55.790;37.572;2023-06-26T11:12:11;99439.72;;;30.13;24.57
20228;BME280;12195;55.790;37.572;2023-06-26T11:14:54;99433.73;;;30.05;24.66
20228;BME280;12195;55.790;37.572;2023-06-26T11:17:28;99429.55;;;30.09;24.31
20228;BME280;12195;55.790;37.572;2023-06-26T11:20:15;99434.62;;;30.80;23.99
20228;BME280;12195;55.790;37.572;2023-06-26T11:23:00;99435.67;;;31.53;23.36
20228;BME280;12195;55.790;37.572;2023-06-26T11:25:37;99419.93;;;33.15;21.35
20228;BME280;12195;55.790;37.572;2023-06-26T11:28:22;99423.38;;;34.87;20.71
20228;BME280;12195;55.790;37.572;2023-06-26T11:30:56;99415.92;;;36.03;19.42
20228;BME280;12195;55.790;37.572;2023-06-26T11:33:40;99421.56;;;36.40;19.12
20228;BME280;12195;55.790;37.572;2023-06-26T11:36:13;99415.53;;;35.07;19.33
20228;BME280;12195;55.790;37.572;2023-06-26T11:39:02;99409.54;;;34.77;20.23
20228;BME280;12195;55.790;37.572;2023-06-26T11:41:38;99410.30;;;34.05;20.79
20228;BME280;12195;55.790;37.572;2023-06-26T11:44:22;99418.79;;;34.20;20.96
20228;BME280;12195;55.790;37.572;2023-06-26T11:46:56;99409.50;;;33.01;20.55
20228;BME280;12195;55.790;37.572;2023-06-26T11:49:29;99406.11;;;32.76;20.13
20228;BME280;12195;55.790;37.572;2023-06-26T11:52:12;99414.09;;;34.04;20.11
20228;BME280;12195;55.790;37.572;2023-06-26T11:54:45;99398.18;;;33.50;18.65
20228;BME280;12195;55.790;37.572;2023-06-26T11:57:30;99403.29;;;34.09;19.21
20228;BME280;12195;55.790;37.572;2023-06-26T12:00:14;99388.80;;;34.20;18.22
20228;BME280;12195;55.790;37.572;2023-06-26T12:02:58;99391.87;;;36.27;18.49
20228;BME280;12195;55.790;37.572;2023-06-26T12:05:31;99377.03;;;36.71;17.29
20228;BME280;12195;55.790;37.572;2023-06-26T12:08:16;99382.72;;;36.96;18.02
20228;BME280;12195;55.790;37.572;2023-06-26T12:11:01;99383.09;;;35.82;19.11
20228;BME280;12195;55.790;37.572;2023-06-26T12:13:34;99378.47;;;33.94;20.06
20228;BME280;12195;55.790;37.572;2023-06-26T12:16:06;99378.08;;;34.02;20.72
20228;BME280;12195;55.790;37.572;2023-06-26T12:19:00;99384.28;;;32.94;20.98
20228;BME280;12195;55.790;37.572;2023-06-26T12:21:46;99377.89;;;32.00;22.02
20228;BME280;12195;55.790;37.572;2023-06-26T12:24:23;99367.81;;;30.86;22.91
20228;BME280;12195;55.790;37.572;2023-06-26T12:27:27;99383.97;;;30.99;23.06
20228;BME280;12195;55.790;37.572;2023-06-26T12:30:13;99383.73;;;30.45;23.58
20228;BME280;12195;55.790;37.572;2023-06-26T12:32:46;99380.98;;;30.14;23.65
20228;BME280;12195;55.790;37.572;2023-06-26T12:35:33;99378.81;;;30.60;23.57
20228;BME280;12195;55.790;37.572;2023-06-26T12:38:07;99367.52;;;30.32;23.52
20228;BME280;12195;55.790;37.572;2023-06-26T12:40:56;99369.22;;;31.37;22.86
20228;BME280;12195;55.790;37.572;2023-06-26T12:43:27;99357.51;;;30.70;23.33
20228;BME280;12195;55.790;37.572;2023-06-26T12:46:12;99369.95;;;30.77;23.84
20228;BME280;12195;55.790;37.572;2023-06-26T12:48:45;99360.20;;;29.95;24.57
20228;BME280;12195;55.790;37.572;2023-06-26T12:51:35;99365.07;;;30.24;24.69
20228;BME280;12195;55.790;37.572;2023-06-26T12:54:07;99357.65;;;30.44;23.39
20228;BME280;12195;55.790;37.572;2023-06-26T12:56:53;99353.41;;;32.18;22.28
20228;BME280;12195;55.790;37.572;2023-06-26T12:59:25;99346.17;;;32.94;20.86
20228;BME280;12195;55.790;37.572;2023-06-26T13:02:11;99349.73;;;34.59;19.27
20228;BME280;12195;55.790;37.572;2023-06-26T13:04:45;99337.91;;;35.03;18.32
20228;BME280;12195;55.790;37.572;2023-06-26T13:07:17;99337.67;;;38.17;16.08
20228;BME280;12195;55.790;37.572;2023-06-26T13:09:50;99325.55;;;40.70;13.88
20228;BME280;12195;55.790;37.572;2023-06-26T13:12:35;99337.30;;;43.14;13.13
20228;BME280;12195;55.790;37.572;2023-06-26T13:15:18;99338.16;;;42.64;13.00
20228;BME280;12195;55.790;37.572;2023-06-26T13:18:02;99342.78;;;41.14;13.68
20228;BME280;12195;55.790;37.572;2023-06-26T13:20:35;99338.01;;;38.50;15.09
20228;BME280;12195;55.790;37.572;2023-06-26T13:23:20;99341.90;;;37.83;16.39
20228;BME280;12195;55.790;37.572;2023-06-26T13:25:53;99324.95;;;35.70;17.30
20228;BME280;12195;55.790;37.572;2023-06-26T13:28:37;99336.58;;;35.60;18.21
20228;BME280;12195;55.790;37.572;2023-06-26T13:31:10;99316.15;;;36.95;16.62
20228;BME280;12195;55.790;37.572;2023-06-26T13:33:56;99313.03;;;38.87;15.13
20228;BME280;12195;55.790;37.572;2023-06-26T13:36:30;99308.32;;;38.32;15.42
20228;BME280;12195;55.790;37.572;2023-06-26T13:39:15;99312.14;;;40.10;15.04
20228;BME280;12195;55.790;37.572;2023-06-26T13:41:48;99298.40;;;40.82;13.58
20228;BME280;12195;55.790;37.572;2023-06-26T13:44:31;99304.72;;;41.16;13.86
20228;BME280;12195;55.790;37.572;2023-06-26T13:47:05;99306.59;;;39.61;14.06
20228;BME280;12195;55.790;37.572;2023-06-26T13:49:49;99307.86;;;41.04;13.82
20228;BME280;12195;55.790;37.572;2023-06-26T13:52:21;99316.27;;;42.31;12.05
20228;BME280;12195;55.790;37.572;2023-06-26T13:55:06;99308.48;;;45.03;11.45
20228;BME280;12195;55.790;37.572;2023-06-26T13:57:48;99314.77;;;46.97;10.47
20228;BME280;12195;55.790;37.572;2023-06-26T14:00:22;99298.38;;;47.59;8.95
20228;BME280;12195;55.790;37.572;2023-06-26T14:03:07;99309.33;;;49.64;8.96
20228;BME280;12195;55.790;37.572;2023-06-26T14:05:41;99295.78;;;49.42;8.05